Archival Weather

Chicago O'Hare International

Chicago, Illinois (KORD)

Report from: Tuesday, December 6, 2022 1:51 PM CST
Current time: Saturday, February 4, 2023 10:50 PM CST

Current weather
Weather history
Weather forecast

Present weatherHaze
Temperature6.1°C (43.0°F)
Wind chill3.1°C (37.7°F)
Dew point2.2°C (36.0°F)
Winds 8 kts (4.1 m/s, 9.2 mph) North-Northeast (20°)
Visibility6 mi. (9.7 km)
Clouds Ceiling: Overcast 1,300 ft. (396 m)
Altimeter30.00 in.Hg (1016 mB)
Relative humidity76 %
Density altitude-1,057 ft. (-322 m)
Sea-level pressure101.6 kPa (1016 mB, 30.01 in.Hg)
Remarks Automated weather observing station with precipitation discriminator
Flight conditions Marginal Visual Meteorological Conditions
Raw dataKORD 061951Z 02008KT 6SM HZ OVC013 06/02 A3000 RMK AO2 SLP163 T00610022
An unhandled exception has occurred. See browser dev tools for details. Reload 🗙